createdAt,value
2022-10-29T00:00:51.373Z,73.97
2022-10-29T00:01:52.076Z,73.68
2022-10-29T00:02:51.825Z,74.16
2022-10-29T00:03:52.122Z,74.06
2022-10-29T00:04:52.874Z,73.58
2022-10-29T00:05:52.878Z,74.06
2022-10-29T00:06:53.073Z,74.06
2022-10-29T00:07:54.223Z,74.06
2022-10-29T00:08:54.832Z,73.97
2022-10-29T00:09:55.011Z,74.06
2022-10-29T00:10:55.498Z,73.77
2022-10-29T00:11:55.694Z,73.87
2022-10-29T00:12:55.886Z,73.83
2022-10-29T00:13:56.800Z,73.83
2022-10-29T00:14:57.027Z,73.93
2022-10-29T00:15:57.338Z,74.22
2022-10-29T00:16:58.288Z,73.83
2022-10-29T00:17:59.349Z,73.83
2022-10-29T00:18:59.150Z,73.55
2022-10-29T00:19:59.725Z,73.35
2022-10-29T00:20:59.835Z,73.58
2022-10-29T00:22:00.450Z,73.58
2022-10-29T00:23:01.519Z,73.1
2022-10-29T00:24:01.443Z,73.1
2022-10-29T00:25:02.352Z,73.1
2022-10-29T00:26:03.384Z,73.77
2022-10-29T00:27:03.572Z,73.58
2022-10-29T00:28:04.811Z,73.3
2022-10-29T00:29:05.721Z,73.39
2022-10-29T00:30:06.638Z,72.81
2022-10-29T00:31:06.553Z,73.1
2022-10-29T00:32:07.881Z,73.58
2022-10-29T00:33:08.423Z,73.39
2022-10-29T00:34:09.508Z,73.87
2022-10-29T00:35:09.999Z,73.49
2022-10-29T00:36:10.299Z,73.55
2022-10-29T00:37:11.226Z,73.45
2022-10-29T00:38:11.720Z,73.26
2022-10-29T00:39:11.606Z,73.93
2022-10-29T00:40:12.520Z,73.77
2022-10-29T00:41:13.472Z,73.58
2022-10-29T00:42:14.385Z,72.81
2022-10-29T00:43:15.325Z,72.88
2022-10-29T00:44:16.242Z,72.88
2022-10-29T00:45:16.976Z,72.97
2022-10-29T00:46:17.662Z,72.97
2022-10-29T00:47:18.992Z,72.88
2022-10-29T00:48:19.210Z,73
2022-10-29T00:49:19.102Z,72.88
2022-10-29T00:50:20.316Z,72.78
2022-10-29T00:51:20.644Z,72.81
2022-10-29T00:52:21.570Z,73.55
2022-10-29T00:53:22.478Z,73.74
2022-10-29T00:54:22.670Z,72.78
2022-10-29T00:55:23.590Z,72.88
2022-10-29T00:56:23.605Z,73.55
2022-10-29T00:57:24.223Z,72.91
2022-10-29T00:58:25.436Z,73.26
2022-10-29T00:59:26.061Z,73.26
2022-10-29T01:00:27.031Z,72.97
2022-10-29T01:01:27.801Z,72.97
2022-10-29T01:02:28.577Z,73.26
2022-10-29T01:03:28.516Z,73.45
2022-10-29T01:04:28.729Z,73.45
2022-10-29T01:05:28.954Z,73.45
2022-10-29T01:06:29.375Z,73.35
2022-10-29T01:07:30.287Z,73.45
2022-10-29T01:08:30.199Z,73.93
2022-10-29T01:09:31.103Z,73.45
2022-10-29T01:10:31.717Z,73.35
2022-10-29T01:11:31.947Z,73.35
2022-10-29T01:12:32.567Z,73.16
2022-10-29T01:13:33.470Z,73.83
2022-10-29T01:14:34.475Z,73.65
2022-10-29T01:15:34.671Z,74.02
2022-10-29T01:16:35.393Z,73.55
2022-10-29T01:17:35.922Z,74.02
2022-10-29T01:18:36.257Z,74.12
2022-10-29T01:19:36.768Z,74.12
2022-10-29T01:20:37.271Z,74.31
2022-10-29T01:21:37.881Z,74.51
2022-10-29T01:22:39.093Z,74.51
2022-10-29T01:23:39.009Z,74.47
2022-10-29T01:24:39.634Z,74.51
2022-10-29T01:25:39.844Z,75.43
2022-10-29T01:26:40.239Z,75.14
2022-10-29T01:27:41.596Z,75.14
2022-10-29T01:28:41.724Z,75.52
2022-10-29T01:29:42.338Z,75.62
2022-10-29T01:30:43.234Z,75.62
2022-10-29T01:31:43.424Z,76.19
2022-10-29T01:32:44.697Z,76.1
2022-10-29T01:33:45.249Z,76.15
2022-10-29T01:34:46.165Z,76.1
2022-10-29T01:35:47.113Z,77.4
2022-10-29T01:36:47.432Z,76.92
2022-10-29T01:37:47.767Z,76.48
2022-10-29T01:38:48.360Z,76.44
2022-10-29T01:39:48.845Z,76.35
2022-10-29T01:40:49.757Z,76.44
2022-10-29T01:41:50.106Z,76.29
2022-10-29T01:42:49.999Z,76.35
2022-10-29T01:43:51.176Z,76.19
2022-10-29T01:44:51.091Z,76.15
2022-10-29T01:45:51.998Z,76.15
2022-10-29T01:46:52.276Z,76
2022-10-29T01:47:52.616Z,75.9
2022-10-29T01:48:52.745Z,75.62
2022-10-29T01:49:53.236Z,75.62
2022-10-29T01:50:53.738Z,75.43
2022-10-29T01:51:54.357Z,75.43
2022-10-29T01:52:54.975Z,75.33
2022-10-29T01:53:56.183Z,75.52
2022-10-29T01:54:56.391Z,75.52
2022-10-29T01:55:57.307Z,75.62
2022-10-29T01:56:58.340Z,75.62
2022-10-29T01:57:59.420Z,75.62
2022-10-29T01:58:59.191Z,75.43
2022-10-29T02:00:01.487Z,75.14
2022-10-29T02:01:00.832Z,75.14
2022-10-29T02:02:01.309Z,75.33
2022-10-29T02:03:02.489Z,75.71
2022-10-29T02:04:01.812Z,75.23
2022-10-29T02:05:03.005Z,75.29
2022-10-29T02:06:03.342Z,75.29
2022-10-29T02:07:04.134Z,75.23
2022-10-29T02:08:05.048Z,75.14
2022-10-29T02:09:05.687Z,75.14
2022-10-29T02:10:06.891Z,75.2
2022-10-29T02:11:07.226Z,75.62
2022-10-29T02:12:07.839Z,75.71
2022-10-29T02:13:08.829Z,75.14
2022-10-29T02:14:08.962Z,75.52
2022-10-29T02:15:09.298Z,75.81
2022-10-29T02:16:10.205Z,75.29
2022-10-29T02:17:10.196Z,75.81
2022-10-29T02:18:10.723Z,75.62
2022-10-29T02:19:11.230Z,75.62
2022-10-29T02:20:11.840Z,75.68
2022-10-29T02:21:12.048Z,75.48
2022-10-29T02:22:12.236Z,76.19
2022-10-29T02:23:12.453Z,76.39
2022-10-29T02:24:12.652Z,75.9
2022-10-29T02:25:12.961Z,76.35
2022-10-29T02:26:13.213Z,76.73
2022-10-29T02:27:13.910Z,76.25
2022-10-29T02:28:14.773Z,76.82
2022-10-29T02:29:15.717Z,76.73
2022-10-29T02:30:16.629Z,76.73
2022-10-29T02:31:16.837Z,76.82
2022-10-29T02:32:17.466Z,77.4
2022-10-29T02:33:18.119Z,77.4
2022-10-29T02:34:18.626Z,77.31
2022-10-29T02:35:19.116Z,77.11
2022-10-29T02:36:19.345Z,77.4
2022-10-29T02:37:19.636Z,77.69
2022-10-29T02:38:20.541Z,77.88
2022-10-29T02:39:20.753Z,78.27
2022-10-29T02:40:21.387Z,78.07
2022-10-29T02:41:21.599Z,77.78
2022-10-29T02:42:21.513Z,77.69
2022-10-29T02:43:22.435Z,77.4
2022-10-29T02:44:23.049Z,77.88
2022-10-29T02:45:23.679Z,77.31
2022-10-29T02:46:24.888Z,77.31
2022-10-29T02:47:25.054Z,77.5
2022-10-29T02:48:26.290Z,77.4
2022-10-29T02:49:26.490Z,77.4
2022-10-29T02:50:27.105Z,77.02
2022-10-29T02:51:27.747Z,76.54
2022-10-29T02:52:28.635Z,76.82
2022-10-29T02:53:29.554Z,76.54
2022-10-29T02:54:30.468Z,76.54
2022-10-29T02:55:31.081Z,75.96
2022-10-29T02:56:31.998Z,76.15
2022-10-29T02:57:33.286Z,76.25
2022-10-29T02:58:33.193Z,76.06
2022-10-29T02:59:34.407Z,75.87
2022-10-29T03:00:35.321Z,76.15
2022-10-29T03:01:36.455Z,75.48
2022-10-29T03:02:37.475Z,75.58
2022-10-29T03:03:38.063Z,75.96
2022-10-29T03:04:37.967Z,75.39
2022-10-29T03:05:38.455Z,75.29
2022-10-29T03:06:38.559Z,75.1
2022-10-29T03:07:39.274Z,75.58
2022-10-29T03:08:39.870Z,75.2
2022-10-29T03:09:40.194Z,74.91
2022-10-29T03:10:41.080Z,75.2
2022-10-29T03:11:41.687Z,75.77
2022-10-29T03:12:42.580Z,75.58
2022-10-29T03:13:43.271Z,74.91
2022-10-29T03:14:44.182Z,74.91
2022-10-29T03:15:45.099Z,75.58
2022-10-29T03:16:45.303Z,75.58
2022-10-29T03:17:46.028Z,75.58
2022-10-29T03:18:46.800Z,75.68
2022-10-29T03:19:47.301Z,75.29
2022-10-29T03:20:47.216Z,75.48
2022-10-29T03:21:48.149Z,75.48
2022-10-29T03:22:49.355Z,75.48
2022-10-29T03:23:49.549Z,75.48
2022-10-29T03:24:50.750Z,74.91
2022-10-29T03:25:54.517Z,75.48
2022-10-29T03:26:50.873Z,75.48
2022-10-29T03:27:51.579Z,75.58
2022-10-29T03:28:52.858Z,75.39
2022-10-29T03:29:53.489Z,75.01
2022-10-29T03:30:54.117Z,75.2
2022-10-29T03:31:54.717Z,75.01
2022-10-29T03:32:55.216Z,75.1
2022-10-29T03:33:55.786Z,74.43
2022-10-29T03:35:00.147Z,75.2
2022-10-29T03:35:57.313Z,75.01
2022-10-29T03:36:56.979Z,75.1
2022-10-29T03:37:57.764Z,75.2
2022-10-29T03:38:58.119Z,75.1
2022-10-29T03:39:59.009Z,75.01
2022-10-29T03:40:59.493Z,74.72
2022-10-29T03:42:00.008Z,75.01
2022-10-29T03:43:00.630Z,75.1
2022-10-29T03:44:00.831Z,74.91
2022-10-29T03:45:02.037Z,75.2
2022-10-29T03:46:01.935Z,74.91
2022-10-29T03:47:02.823Z,75.1
2022-10-29T03:48:03.852Z,75.2
2022-10-29T03:49:04.095Z,75.1
2022-10-29T03:50:04.303Z,75.2
2022-10-29T03:51:04.486Z,74.62
2022-10-29T03:52:05.139Z,74.62
2022-10-29T03:53:05.625Z,74.43
2022-10-29T03:54:06.261Z,74.43
2022-10-29T03:55:06.477Z,74.43
2022-10-29T03:56:07.092Z,74.24
2022-10-29T03:57:07.281Z,74.72
2022-10-29T03:58:08.589Z,75.2
2022-10-29T04:00:10.227Z,74.52
2022-10-29T04:01:11.453Z,74.33
2022-10-29T04:02:11.814Z,74.24
2022-10-29T04:03:11.731Z,74.24
2022-10-29T04:04:12.308Z,74.52
2022-10-29T04:05:12.559Z,74.24
2022-10-29T04:06:13.489Z,74.24
2022-10-29T04:07:14.084Z,74.43
2022-10-29T04:08:14.359Z,74.24
2022-10-29T04:09:15.243Z,74.24
2022-10-29T04:10:16.457Z,74.43
2022-10-29T04:11:17.092Z,74.52
2022-10-29T04:12:18.006Z,74.33
2022-10-29T04:13:18.616Z,74.52
2022-10-29T04:14:19.832Z,74.24
2022-10-29T04:15:20.316Z,74.52
2022-10-29T04:16:20.950Z,74.43
2022-10-29T04:17:21.882Z,74.24
2022-10-29T04:18:22.200Z,74.24
2022-10-29T04:19:23.143Z,74.33
2022-10-29T04:29:19.299Z,74.15
2022-10-29T04:30:19.986Z,73.95
2022-10-29T04:31:21.247Z,74.52
2022-10-29T04:32:21.433Z,74.24
2022-10-29T04:33:21.469Z,74.08
2022-10-29T04:34:21.957Z,74.08
2022-10-29T04:35:22.909Z,74.52
2022-10-29T04:36:22.818Z,74.66
2022-10-29T04:37:24.035Z,74.27
2022-10-29T04:38:24.954Z,74.47
2022-10-29T04:39:28.879Z,74.52
2022-10-29T04:40:26.465Z,74.24
2022-10-29T04:41:26.667Z,74.62
2022-10-29T04:42:26.976Z,75.1
2022-10-29T04:43:27.164Z,75.29
2022-10-29T04:44:27.350Z,75.2
2022-10-29T04:45:28.588Z,75.2
2022-10-29T04:46:29.370Z,74.91
2022-10-29T04:47:30.000Z,74.91
2022-10-29T04:48:30.599Z,75.1
2022-10-29T04:49:31.784Z,75.1
2022-10-29T04:50:32.302Z,75.1
2022-10-29T04:51:32.807Z,75.1
2022-10-29T04:52:33.288Z,75.2
2022-10-29T04:53:33.919Z,74.43
2022-10-29T04:54:34.839Z,74.24
2022-10-29T04:55:34.732Z,74.43
2022-10-29T04:56:34.921Z,74.33
2022-10-29T04:57:35.810Z,74.24
2022-10-29T04:58:36.004Z,74.43
2022-10-29T04:59:36.677Z,74.43
2022-10-29T05:00:37.612Z,74.52
2022-10-29T05:01:37.822Z,74.62
2022-10-29T05:02:37.725Z,74.72
2022-10-29T05:03:38.665Z,74.62
2022-10-29T05:04:39.283Z,74.24
2022-10-29T05:05:40.207Z,74.33
2022-10-29T05:06:40.700Z,73.95
2022-10-29T05:07:41.614Z,73.66
2022-10-29T05:08:42.558Z,73.8
2022-10-29T05:09:42.473Z,73.99
2022-10-29T05:10:43.769Z,74.08
2022-10-29T05:11:43.672Z,73.86
2022-10-29T05:12:44.166Z,74.05
2022-10-29T05:13:44.590Z,73.47
2022-10-29T05:14:45.575Z,73.99
2022-10-29T05:15:50.454Z,73.95
2022-10-29T05:16:46.576Z,73.99
2022-10-29T05:17:47.204Z,73.99
2022-10-29T05:18:47.813Z,73.9
2022-10-29T05:19:48.012Z,73.86
2022-10-29T05:20:48.374Z,73.99
2022-10-29T05:21:48.676Z,73.9
2022-10-29T05:22:49.313Z,73.7
2022-10-29T05:23:50.222Z,73.99
2022-10-29T05:24:51.571Z,73.76
2022-10-29T05:25:51.790Z,73.8
2022-10-29T05:26:52.193Z,73.99
2022-10-29T05:27:52.513Z,73.61
2022-10-29T05:28:53.233Z,73.9
2022-10-29T05:29:54.120Z,73.8
2022-10-29T05:30:54.570Z,73.86
2022-10-29T05:31:55.771Z,73.22
2022-10-29T05:32:56.555Z,73.9
2022-10-29T05:34:01.350Z,73.8
2022-10-29T05:34:57.957Z,73.28
2022-10-29T05:35:59.178Z,73.32
2022-10-29T05:36:59.380Z,73.86
2022-10-29T05:37:59.989Z,73.9
2022-10-29T05:39:01.212Z,73.22
2022-10-29T05:40:01.416Z,73.22
2022-10-29T05:41:02.453Z,73.41
2022-10-29T05:42:03.096Z,73.51
2022-10-29T05:43:04.202Z,73.13
2022-10-29T05:44:04.135Z,72.9
2022-10-29T05:45:04.765Z,72.94
2022-10-29T05:46:04.956Z,72.84
2022-10-29T05:47:05.446Z,73.22
2022-10-29T05:48:05.878Z,73.03
2022-10-29T05:49:05.864Z,72.94
2022-10-29T05:50:06.477Z,72.45
2022-10-29T05:51:07.197Z,72.94
2022-10-29T05:52:07.693Z,72.74
2022-10-29T05:53:07.883Z,72.45
2022-10-29T05:54:08.105Z,72.36
2022-10-29T05:55:08.425Z,72.36
2022-10-29T05:56:08.918Z,72.64
2022-10-29T05:57:09.824Z,72.64
2022-10-29T05:58:10.031Z,72.45
2022-10-29T05:59:09.940Z,71.98
2022-10-29T06:00:10.852Z,72.45
2022-10-29T06:01:11.218Z,72.64
2022-10-29T06:02:11.637Z,72.45
2022-10-29T06:03:12.018Z,72.84
2022-10-29T06:04:13.082Z,72.64
2022-10-29T06:05:13.706Z,73.22
2022-10-29T06:06:15.088Z,73.03
2022-10-29T06:07:15.885Z,73.03
2022-10-29T06:08:16.078Z,72.74
2022-10-29T06:09:17.117Z,73.13
2022-10-29T06:10:17.305Z,73.7
2022-10-29T06:11:17.295Z,73.8
2022-10-29T06:12:18.508Z,73.51
2022-10-29T06:13:18.840Z,73.51
2022-10-29T06:14:18.755Z,73.8
2022-10-29T06:15:19.258Z,73.61
2022-10-29T06:16:20.233Z,74.08
2022-10-29T06:17:20.867Z,73.8
2022-10-29T06:18:21.758Z,73.51
2022-10-29T06:19:21.676Z,73.22
2022-10-29T06:20:22.707Z,73.32
2022-10-29T06:21:23.065Z,73.9
2022-10-29T06:22:23.572Z,73.32
2022-10-29T06:23:24.059Z,73.51
2022-10-29T06:24:24.408Z,73.03
2022-10-29T06:25:25.317Z,73.03
2022-10-29T06:26:26.510Z,73.51
2022-10-29T06:27:27.428Z,73.03
2022-10-29T06:28:31.787Z,73.03
2022-10-29T06:29:28.318Z,72.74
2022-10-29T06:30:28.210Z,72.74
2022-10-29T06:31:29.515Z,73.13
2022-10-29T06:32:30.461Z,73.22
2022-10-29T06:33:30.675Z,73.03
2022-10-29T06:34:31.166Z,72.94
2022-10-29T06:35:31.810Z,73.07
2022-10-29T06:36:31.880Z,73.07
2022-10-29T06:37:32.087Z,72.68
2022-10-29T06:38:33.285Z,72.78
2022-10-29T06:39:33.786Z,72.78
2022-10-29T06:40:34.403Z,72.59
2022-10-29T06:41:34.720Z,72.59
2022-10-29T06:42:35.663Z,72.68
2022-10-29T06:43:36.580Z,72.97
2022-10-29T06:44:36.924Z,72.97
2022-10-29T06:45:37.110Z,72.59
2022-10-29T06:46:37.599Z,72.39
2022-10-29T06:47:37.808Z,72.68
2022-10-29T06:48:38.022Z,72.68
2022-10-29T06:49:38.645Z,73.45
2022-10-29T06:50:39.564Z,72.88
2022-10-29T06:51:40.413Z,73.55
2022-10-29T06:52:40.614Z,73.45
2022-10-29T06:53:41.102Z,73.55
2022-10-29T06:54:41.747Z,73.16
2022-10-29T06:55:42.937Z,73.26
2022-10-29T06:56:42.852Z,72.68
2022-10-29T06:57:43.456Z,72.88
2022-10-29T06:58:44.348Z,73.74
2022-10-29T06:59:45.544Z,73.26
2022-10-29T07:00:45.968Z,73.65
2022-10-29T07:01:46.641Z,73.16
2022-10-29T07:02:47.029Z,73.55
2022-10-29T07:03:47.985Z,73.65
2022-10-29T07:04:48.895Z,73.83
2022-10-29T07:05:49.816Z,72.88
2022-10-29T07:06:50.764Z,73.07
2022-10-29T07:07:51.269Z,72.59
2022-10-29T07:08:51.482Z,73.26
2022-10-29T07:09:51.994Z,73.74
2022-10-29T07:10:52.615Z,73.35
2022-10-29T07:11:52.885Z,72.97
2022-10-29T07:12:54.101Z,73.07
2022-10-29T07:13:53.993Z,72.59
2022-10-29T07:14:54.492Z,72.97
2022-10-29T07:15:55.439Z,72.78
2022-10-29T07:16:56.371Z,72.59
2022-10-29T07:17:57.015Z,73.07
2022-10-29T07:18:56.785Z,72.68
2022-10-29T07:19:57.273Z,72.68
2022-10-29T07:20:57.165Z,72.59
2022-10-29T07:21:58.207Z,72.49
2022-10-29T07:22:58.423Z,72.59
2022-10-29T07:23:58.925Z,72.88
2022-10-29T07:25:02.314Z,72.72
2022-10-29T07:25:59.931Z,72.81
2022-10-29T07:27:01.051Z,72.53
2022-10-29T07:28:02.124Z,71.76
2022-10-29T07:29:02.690Z,71.86
2022-10-29T07:30:02.908Z,71.03
2022-10-29T07:31:03.258Z,70.45
2022-10-29T07:32:03.982Z,70.45
2022-10-29T07:33:04.876Z,70.01
2022-10-29T07:34:04.773Z,69.53
2022-10-29T07:35:05.824Z,69.27
2022-10-29T07:36:07.025Z,68.7
2022-10-29T07:37:07.977Z,67.74
2022-10-29T07:38:15.634Z,67.58
2022-10-29T07:39:08.552Z,66.71
2022-10-29T07:40:08.985Z,66.91
2022-10-29T07:41:10.190Z,66.65
2022-10-29T07:42:10.118Z,66.17
2022-10-29T07:43:10.785Z,66.17
2022-10-29T07:44:11.745Z,66.04
2022-10-29T07:45:11.961Z,66.46
2022-10-29T07:46:12.882Z,66.14
2022-10-29T07:47:13.083Z,66.17
2022-10-29T07:48:14.056Z,66.36
2022-10-29T07:49:14.663Z,66.55
2022-10-29T07:50:15.594Z,65.97
2022-10-29T07:51:15.794Z,65.33
2022-10-29T07:52:16.811Z,64.76
2022-10-29T07:53:17.025Z,64.08
2022-10-29T07:54:20.384Z,63.73
2022-10-29T07:55:18.695Z,63.25
2022-10-29T07:56:18.816Z,62.8
2022-10-29T07:57:19.017Z,61.83
2022-10-29T07:58:19.936Z,61.29
2022-10-29T07:59:20.569Z,61
2022-10-29T08:00:20.785Z,61
2022-10-29T08:01:21.303Z,61.03
2022-10-29T08:02:21.186Z,61.1
2022-10-29T08:03:21.528Z,61.38
2022-10-29T08:04:22.450Z,61.13
2022-10-29T08:05:22.640Z,60.74
2022-10-29T08:06:23.272Z,60.74
2022-10-29T08:07:24.523Z,60.74
2022-10-29T08:08:25.037Z,61.03
2022-10-29T08:09:25.249Z,61.1
2022-10-29T08:10:25.862Z,61.22
2022-10-29T08:11:26.361Z,62.18
2022-10-29T08:12:26.754Z,62.18
2022-10-29T08:13:27.385Z,62.18
2022-10-29T08:14:28.059Z,61.51
2022-10-29T08:15:28.686Z,61.13
2022-10-29T08:16:29.587Z,59.8
2022-10-29T08:17:30.216Z,59.9
2022-10-29T08:18:31.152Z,60.19
2022-10-29T08:19:32.089Z,60.58
2022-10-29T08:20:32.712Z,60.48
2022-10-29T08:21:32.934Z,59.52
2022-10-29T08:22:33.992Z,58.94
2022-10-29T08:23:34.510Z,58.48
2022-10-29T08:24:35.138Z,58.1
2022-10-29T08:25:36.221Z,57.81
2022-10-29T08:26:36.864Z,57.93
2022-10-29T08:27:37.771Z,58.12
2022-10-29T08:28:41.128Z,56.68
2022-10-29T08:29:39.771Z,56.96
2022-10-29T08:30:39.676Z,57.45
2022-10-29T08:31:40.070Z,56.87
2022-10-29T08:32:41.094Z,56.29
2022-10-29T08:33:42.358Z,56.58
2022-10-29T08:34:42.295Z,56.68
2022-10-29T08:35:43.227Z,56.58
2022-10-29T08:36:43.580Z,56.87
2022-10-29T08:37:44.129Z,57.06
2022-10-29T08:38:44.695Z,56.1
2022-10-29T08:39:45.602Z,56.68
2022-10-29T08:40:45.521Z,56.68
2022-10-29T08:41:46.020Z,57.26
2022-10-29T08:42:46.358Z,56.56
2022-10-29T08:43:52.791Z,57.32
2022-10-29T08:44:47.348Z,58
2022-10-29T08:45:47.542Z,58.58
2022-10-29T08:46:48.510Z,58.29
2022-10-29T08:47:48.948Z,57.42
2022-10-29T08:48:49.597Z,57.42
2022-10-29T08:49:50.114Z,57.71
2022-10-29T08:50:51.011Z,57.71
2022-10-29T08:51:51.256Z,58
2022-10-29T08:53:22.074Z,57.93
2022-10-29T08:54:29.626Z,56.87
2022-10-29T08:54:53.767Z,56.71
2022-10-29T08:55:54.974Z,56.22
2022-10-29T08:56:55.171Z,55.93
2022-10-29T08:57:56.551Z,55.93
2022-10-29T08:58:56.811Z,56.03
2022-10-29T08:59:57.251Z,56.41
2022-10-29T09:00:57.784Z,56.99
2022-10-29T09:01:58.248Z,55.57
2022-10-29T09:02:59.492Z,55.29
2022-10-29T09:03:59.714Z,55.02
2022-10-29T09:05:00.368Z,54.47
2022-10-29T09:06:01.300Z,53.53
2022-10-29T09:07:01.502Z,52.39
2022-10-29T09:08:06.600Z,51.52
2022-10-29T09:09:02.516Z,50.67
2022-10-29T09:10:03.467Z,50.77
2022-10-29T09:11:04.083Z,50.48
2022-10-29T09:12:04.589Z,51.16
2022-10-29T09:13:05.150Z,51.45
2022-10-29T09:14:05.499Z,51.45
2022-10-29T09:15:06.397Z,50.96
2022-10-29T09:16:07.041Z,51.74
2022-10-29T09:17:09.176Z,51.84
2022-10-29T09:18:07.946Z,51.74
2022-10-29T09:19:09.173Z,51.25
2022-10-29T09:20:09.671Z,51.74
2022-10-29T09:21:09.986Z,51.57
2022-10-29T09:22:10.613Z,51.67
2022-10-29T09:23:10.997Z,52.54
2022-10-29T09:24:10.888Z,51.47
2022-10-29T09:25:12.213Z,50.6
2022-10-29T09:26:12.430Z,50.02
2022-10-29T09:27:16.175Z,51.06
2022-10-29T09:28:14.536Z,51.35
2022-10-29T09:29:14.738Z,50.57
2022-10-29T09:30:15.675Z,50.48
2022-10-29T09:31:16.297Z,50.74
2022-10-29T09:32:16.823Z,51.74
2022-10-29T09:33:19.476Z,52.71
2022-10-29T09:34:20.066Z,51.45
2022-10-29T09:35:20.679Z,50.87
2022-10-29T09:36:20.881Z,50.29
2022-10-29T09:37:21.788Z,49.7
2022-10-29T09:38:22.727Z,50.19
2022-10-29T09:39:29.045Z,50.41
2022-10-29T09:40:23.440Z,48.85
2022-10-29T09:41:23.952Z,48.95
2022-10-29T09:42:23.849Z,48.95
2022-10-29T09:43:25.152Z,48.97
2022-10-29T09:44:26.077Z,48.97
2022-10-29T09:45:26.426Z,48.49
2022-10-29T09:46:27.077Z,48.22
2022-10-29T09:47:26.986Z,48.13
2022-10-29T09:48:27.931Z,48.61
2022-10-29T09:49:28.875Z,48.13
2022-10-29T09:51:29.829Z,48.42
2022-10-29T09:52:30.781Z,48.13
2022-10-29T09:53:31.354Z,48.15
2022-10-29T09:54:32.805Z,47.76
2022-10-29T09:55:32.037Z,47.49
2022-10-29T09:56:32.263Z,46.35
2022-10-29T09:57:32.146Z,45.87
2022-10-29T09:58:34.604Z,45.98
2022-10-29T09:59:33.831Z,44.55
2022-10-29T10:00:34.043Z,44.3
2022-10-29T10:01:35.105Z,43.91
2022-10-29T10:02:35.801Z,42.76
2022-10-29T10:03:36.521Z,42.3
2022-10-29T10:04:37.332Z,41.61
2022-10-29T10:05:38.258Z,41.05
2022-10-29T10:06:43.152Z,40.95
2022-10-29T10:07:39.782Z,40.78
2022-10-29T10:08:40.024Z,41.27
2022-10-29T10:09:40.640Z,40.8
2022-10-29T10:10:41.580Z,40.97
2022-10-29T10:11:42.950Z,40.78
2022-10-29T10:12:43.585Z,41.27
2022-10-29T10:13:43.824Z,42.44
2022-10-29T10:14:44.740Z,43.02
2022-10-29T10:15:45.651Z,42.44
2022-10-29T10:16:46.580Z,41.87
2022-10-29T10:17:46.572Z,41.97
2022-10-29T10:18:47.247Z,42.48
2022-10-29T10:19:48.155Z,41.02
2022-10-29T10:20:48.662Z,39.16
2022-10-29T10:21:49.299Z,39.55
2022-10-29T10:22:50.216Z,40.55
2022-10-29T10:23:51.021Z,39.67
2022-10-29T10:24:51.638Z,39.76
2022-10-29T10:25:52.043Z,38.01
2022-10-29T10:26:52.458Z,38.12
2022-10-29T10:27:53.756Z,37.43
2022-10-29T10:28:53.769Z,37.24
2022-10-29T10:29:54.282Z,37.43
2022-10-29T10:30:54.639Z,36.47
2022-10-29T10:31:56.285Z,36.67
2022-10-29T10:32:56.834Z,36.77
2022-10-29T10:33:57.334Z,37.67
2022-10-29T10:34:57.988Z,36.59
2022-10-29T10:35:58.620Z,36.69
2022-10-29T10:36:59.116Z,36.4
2022-10-29T10:37:59.832Z,36.49
2022-10-29T10:38:59.757Z,36.4
2022-10-29T10:40:00.412Z,35.63
2022-10-29T10:41:01.211Z,36.51
2022-10-29T10:42:01.529Z,36.32
2022-10-29T10:43:04.202Z,36.12
2022-10-29T10:44:02.923Z,36.02
2022-10-29T10:45:03.856Z,35.14
2022-10-29T10:46:04.090Z,35.61
2022-10-29T10:47:05.046Z,36
2022-10-29T10:48:06.719Z,36
2022-10-29T10:49:06.392Z,36.1
2022-10-29T10:50:07.357Z,36.2
2022-10-29T10:51:07.573Z,36.2
2022-10-29T10:52:07.486Z,36.59
2022-10-29T10:53:08.419Z,36.69
2022-10-29T10:54:09.156Z,36.59
2022-10-29T10:55:09.231Z,37.57
2022-10-29T10:56:10.148Z,37.26
2022-10-29T10:57:10.700Z,37.55
2022-10-29T10:58:11.640Z,37.16
2022-10-29T10:59:11.567Z,37.75
2022-10-29T11:00:12.216Z,37.83
2022-10-29T11:01:12.964Z,37.41
2022-10-29T11:02:13.136Z,37.71
2022-10-29T11:03:13.865Z,38.01
2022-10-29T11:04:14.869Z,37.99
2022-10-29T11:05:15.247Z,39.26
2022-10-29T11:06:16.602Z,39.65
2022-10-29T11:07:17.588Z,39.14
2022-10-29T11:08:17.950Z,39.14
2022-10-29T11:09:19.213Z,39.62
2022-10-29T11:10:19.137Z,38.75
2022-10-29T11:11:19.636Z,38.73
2022-10-29T11:12:20.176Z,38.82
2022-10-29T11:13:20.678Z,39.22
2022-10-29T11:14:20.679Z,39.61
2022-10-29T11:15:21.189Z,39.8
2022-10-29T11:16:21.409Z,40
2022-10-29T11:17:21.636Z,40.27
2022-10-29T11:18:22.326Z,40.47
2022-10-29T11:19:22.900Z,40.37
2022-10-29T11:20:22.964Z,39.98
2022-10-29T11:21:23.300Z,40.45
2022-10-29T11:22:23.808Z,40.25
2022-10-29T11:23:24.456Z,40.08
2022-10-29T11:24:25.224Z,39.96
2022-10-29T11:25:26.141Z,39.37
2022-10-29T11:26:27.073Z,39.88
2022-10-29T11:27:27.339Z,39.98
2022-10-29T11:28:27.538Z,40.16
2022-10-29T11:29:28.746Z,39.76
2022-10-29T11:30:29.691Z,40.06
2022-10-29T11:31:30.344Z,40.25
2022-10-29T11:32:31.275Z,41.32
2022-10-29T11:33:32.490Z,40.45
2022-10-29T11:34:32.475Z,41.03
2022-10-29T11:35:33.700Z,40.83
2022-10-29T11:36:33.622Z,40.33
2022-10-29T11:37:34.563Z,41.01
2022-10-29T11:38:34.557Z,41.6
2022-10-29T11:39:35.242Z,41.01
2022-10-29T11:40:35.432Z,41.89
2022-10-29T11:41:35.938Z,41.01
2022-10-29T11:42:36.309Z,41.2
2022-10-29T11:43:36.806Z,41.01
2022-10-29T11:44:37.547Z,41.69
2022-10-29T11:45:38.165Z,43.08
2022-10-29T11:46:38.386Z,43.08
2022-10-29T11:47:38.385Z,42.08
2022-10-29T11:48:39.315Z,42.38
2022-10-29T11:49:39.817Z,42.69
2022-10-29T11:50:40.042Z,41.71
2022-10-29T11:51:40.953Z,41.32
2022-10-29T11:52:41.591Z,40.66
2022-10-29T11:53:41.937Z,40.56
2022-10-29T11:54:42.696Z,40.86
2022-10-29T11:55:42.913Z,40.68
2022-10-29T11:56:43.415Z,40.29
2022-10-29T11:57:43.650Z,41.17
2022-10-29T11:58:46.373Z,40.39
2022-10-29T11:59:44.685Z,39.7
2022-10-29T12:00:45.311Z,39.43
2022-10-29T12:09:50.586Z,41.35
2022-10-29T12:10:51.092Z,42.41
2022-10-29T12:11:51.019Z,42.12
2022-10-29T12:12:51.561Z,40.95
2022-10-29T12:13:52.066Z,40.56
2022-10-29T12:14:53.210Z,41.15
2022-10-29T12:15:53.436Z,41.54
2022-10-29T12:16:53.652Z,42.02
2022-10-29T12:17:55.272Z,42.41
2022-10-29T12:18:55.624Z,42.24
2022-10-29T12:19:56.004Z,42.63
2022-10-29T12:20:56.711Z,42.93
2022-10-29T12:21:57.073Z,41.75
2022-10-29T12:23:00.785Z,42.34
2022-10-29T12:23:58.512Z,41.95
2022-10-29T12:24:59.551Z,42.34
2022-10-29T12:25:59.752Z,42.14
2022-10-29T12:27:00.684Z,42.14
2022-10-29T12:28:01.942Z,43.8
2022-10-29T12:29:02.860Z,43.51
2022-10-29T12:30:03.497Z,43.14
2022-10-29T12:31:03.420Z,42.75
2022-10-29T12:32:03.927Z,42.24
2022-10-29T12:33:05.367Z,43.22
2022-10-29T12:34:05.577Z,43.22
2022-10-29T12:35:06.205Z,42.55
2022-10-29T12:36:07.139Z,41.58
2022-10-29T12:37:07.370Z,41.38
2022-10-29T12:38:07.300Z,42.24
2022-10-29T12:39:07.810Z,40.6
2022-10-29T12:40:08.068Z,41.46
2022-10-29T12:41:08.582Z,43.51
2022-10-29T12:42:09.510Z,42.14
2022-10-29T12:43:10.065Z,41.36
2022-10-29T12:44:10.713Z,40.58
2022-10-29T12:45:11.754Z,40.78
2022-10-29T12:46:25.795Z,40.39
2022-10-29T12:47:13.689Z,40.29
2022-10-29T12:48:14.616Z,42.02
2022-10-29T12:49:14.840Z,41.93
2022-10-29T12:50:15.414Z,43.59
2022-10-29T12:51:15.616Z,42.32
2022-10-29T12:52:16.532Z,41.83
2022-10-29T12:53:17.447Z,42.22
2022-10-29T12:54:17.678Z,42.32
2022-10-29T12:55:18.711Z,43.78
2022-10-29T12:56:22.102Z,43
2022-10-29T12:57:20.340Z,42.22
2022-10-29T12:58:20.615Z,42.22
2022-10-29T12:59:21.252Z,42.32
2022-10-29T13:00:22.456Z,42.22
2022-10-29T13:01:23.120Z,43.88
2022-10-29T13:02:23.649Z,43.76
2022-10-29T13:03:23.567Z,42
2022-10-29T13:04:23.742Z,42.2
2022-10-29T13:05:24.009Z,43.37
2022-10-29T13:06:24.637Z,42.98
2022-10-29T13:07:26.273Z,45.03
2022-10-29T13:08:25.902Z,43.47
2022-10-29T13:09:26.131Z,42.2
2022-10-29T13:10:26.392Z,43.18
2022-10-29T13:11:26.896Z,42.2
2022-10-29T13:12:27.398Z,43.18
2022-10-29T13:13:27.634Z,43.85
2022-10-29T13:14:28.564Z,44.05
2022-10-29T13:15:29.382Z,44.64
2022-10-29T13:16:30.313Z,45.12
2022-10-29T13:17:31.523Z,44.44
2022-10-29T13:18:32.176Z,43.66
2022-10-29T13:19:33.313Z,42.88
2022-10-29T13:20:33.567Z,44.54
2022-10-29T13:21:33.796Z,43.15
2022-10-29T13:22:34.589Z,44.42
2022-10-29T13:23:35.137Z,43.64